createdAt,value
2022-08-26T00:01:57.029Z,26.51
2022-08-26T00:04:26.148Z,26.51
2022-08-26T00:06:55.670Z,26.49
2022-08-26T00:09:24.645Z,26.47
2022-08-26T00:11:53.898Z,26.46
2022-08-26T00:14:25.036Z,26.43
2022-08-26T00:16:55.432Z,26.42
2022-08-26T00:19:22.839Z,26.39
2022-08-26T00:21:50.640Z,26.38
2022-08-26T00:24:20.888Z,26.33
2022-08-26T00:26:49.163Z,26.28
2022-08-26T00:29:17.192Z,26.26
2022-08-26T00:31:45.662Z,26.23
2022-08-26T00:34:15.345Z,26.21
2022-08-26T00:36:43.803Z,26.19
2022-08-26T00:39:11.112Z,26.16
2022-08-26T00:41:40.997Z,26.13
2022-08-26T00:44:11.240Z,26.09
2022-08-26T00:46:47.181Z,26.08
2022-08-26T00:49:37.613Z,26.05
2022-08-26T00:52:09.721Z,26.03
2022-08-26T00:54:46.809Z,26.00
2022-08-26T00:57:18.378Z,25.98
2022-08-26T00:59:52.110Z,25.96
2022-08-26T01:02:20.050Z,25.93
2022-08-26T01:04:55.451Z,25.92
2022-08-26T01:07:26.260Z,25.87
2022-08-26T01:09:56.508Z,25.85
2022-08-26T01:12:25.877Z,25.84
2022-08-26T01:14:53.078Z,25.84
2022-08-26T01:17:20.170Z,25.84
2022-08-26T01:19:54.655Z,25.84
2022-08-26T01:22:31.655Z,25.82
2022-08-26T01:25:04.566Z,25.81
2022-08-26T01:27:33.551Z,25.80
2022-08-26T01:30:02.456Z,25.79
2022-08-26T01:32:33.623Z,25.71
2022-08-26T01:35:01.630Z,25.68
2022-08-26T01:37:36.444Z,25.65
2022-08-26T01:40:08.324Z,25.62
2022-08-26T01:42:35.693Z,25.61
2022-08-26T01:45:14.761Z,25.59
2022-08-26T01:47:43.130Z,25.59
2022-08-26T01:50:28.144Z,25.62
2022-08-26T01:53:02.923Z,25.61
2022-08-26T01:55:34.104Z,25.62
2022-08-26T01:58:10.669Z,25.59
2022-08-26T02:00:39.238Z,25.54
2022-08-26T02:03:17.380Z,25.51
2022-08-26T02:05:53.325Z,25.47
2022-08-26T02:08:32.892Z,25.45
2022-08-26T02:11:00.438Z,25.42
2022-08-26T02:13:31.492Z,25.42
2022-08-26T02:16:01.154Z,25.41
2022-08-26T02:18:34.247Z,25.42
2022-08-26T02:21:01.553Z,25.42
2022-08-26T02:23:28.751Z,25.42
2022-08-26T02:26:04.878Z,25.42
2022-08-26T02:28:40.008Z,25.38
2022-08-26T02:31:07.915Z,25.36
2022-08-26T02:33:35.227Z,25.36
2022-08-26T02:36:03.612Z,25.35
2022-08-26T02:38:30.729Z,25.34
2022-08-26T02:40:57.815Z,25.33
2022-08-26T02:43:31.329Z,25.34
2022-08-26T02:46:00.058Z,25.29
2022-08-26T02:48:28.741Z,25.30
2022-08-26T02:50:55.789Z,25.28
2022-08-26T02:53:25.456Z,25.29
2022-08-26T02:55:52.992Z,25.27
2022-08-26T02:58:20.646Z,25.24
2022-08-26T03:00:52.799Z,25.21
2022-08-26T03:03:22.498Z,25.18
2022-08-26T03:05:52.401Z,25.13
2022-08-26T03:08:20.441Z,25.09
2022-08-26T03:10:48.537Z,25.06
2022-08-26T03:13:18.157Z,25.00
2022-08-26T03:15:45.954Z,24.98
2022-08-26T03:18:15.014Z,24.97
2022-08-26T03:20:42.100Z,24.93
2022-08-26T03:23:11.067Z,24.89
2022-08-26T03:25:38.674Z,24.86
2022-08-26T03:28:05.969Z,24.82
2022-08-26T03:30:44.847Z,24.76
2022-08-26T03:33:13.790Z,24.75
2022-08-26T03:35:43.744Z,24.71
2022-08-26T03:38:11.479Z,24.69
2022-08-26T03:40:39.901Z,24.67
2022-08-26T03:43:09.571Z,24.66
2022-08-26T03:45:37.798Z,24.65
2022-08-26T03:48:05.826Z,24.65
2022-08-26T03:50:34.347Z,24.65
2022-08-26T03:53:04.234Z,24.64
2022-08-26T03:55:34.603Z,24.64
2022-08-26T03:58:03.181Z,24.64
2022-08-26T04:00:31.074Z,24.64
2022-08-26T04:02:58.118Z,24.64
2022-08-26T04:05:25.413Z,24.64
2022-08-26T04:07:52.972Z,24.59
2022-08-26T04:10:29.025Z,24.55
2022-08-26T04:12:59.303Z,24.51
2022-08-26T04:15:27.546Z,24.50
2022-08-26T04:17:56.055Z,24.51
2022-08-26T04:20:25.336Z,24.51
2022-08-26T04:22:52.428Z,24.47
2022-08-26T04:25:20.497Z,24.41
2022-08-26T04:27:48.311Z,24.37
2022-08-26T04:30:16.012Z,24.35
2022-08-26T04:32:44.082Z,24.37
2022-08-26T04:35:11.245Z,24.36
2022-08-26T04:37:38.585Z,24.35
2022-08-26T04:40:06.836Z,24.31
2022-08-26T04:42:34.330Z,24.27
2022-08-26T04:45:02.083Z,24.27
2022-08-26T04:47:33.012Z,24.25
2022-08-26T04:50:00.331Z,24.23
2022-08-26T04:52:29.312Z,24.25
2022-08-26T04:54:58.169Z,24.25
2022-08-26T04:57:25.244Z,24.29
2022-08-26T04:59:53.167Z,24.28
2022-08-26T05:02:20.679Z,24.26
2022-08-26T05:04:47.639Z,24.24
2022-08-26T05:07:18.914Z,24.24
2022-08-26T05:09:48.197Z,24.26
2022-08-26T05:12:15.225Z,24.27
2022-08-26T05:14:43.492Z,24.28
2022-08-26T05:17:10.507Z,24.29
2022-08-26T05:19:43.013Z,24.30
2022-08-26T05:22:10.446Z,24.32
2022-08-26T05:24:41.300Z,24.34
2022-08-26T05:27:11.752Z,24.36
2022-08-26T05:29:40.711Z,24.39
2022-08-26T05:32:07.966Z,24.41
2022-08-26T05:34:37.506Z,24.43
2022-08-26T05:37:06.256Z,24.42
2022-08-26T05:39:33.931Z,24.42
2022-08-26T05:42:01.350Z,24.43
2022-08-26T05:44:29.304Z,24.47
2022-08-26T05:47:16.434Z,24.49
2022-08-26T05:49:49.256Z,24.54
2022-08-26T05:52:19.644Z,24.56
2022-08-26T05:54:47.692Z,24.58
2022-08-26T05:57:15.795Z,24.62
2022-08-26T05:59:42.817Z,24.64
2022-08-26T06:02:10.013Z,24.67
2022-08-26T06:04:37.010Z,24.70
2022-08-26T06:07:04.145Z,24.73
2022-08-26T06:09:32.967Z,24.77
2022-08-26T06:12:01.904Z,24.81
2022-08-26T06:14:30.670Z,24.84
2022-08-26T06:16:57.992Z,24.86
2022-08-26T06:19:25.729Z,24.89
2022-08-26T06:22:23.327Z,24.91
2022-08-26T06:25:09.902Z,24.95
2022-08-26T06:27:37.113Z,24.98
2022-08-26T06:30:04.753Z,25.00
2022-08-26T06:32:31.792Z,25.01
2022-08-26T06:34:59.183Z,25.03
2022-08-26T06:37:26.159Z,25.04
2022-08-26T06:39:53.144Z,25.07
2022-08-26T06:42:20.364Z,25.08
2022-08-26T06:44:47.781Z,25.11
2022-08-26T06:47:15.167Z,25.15
2022-08-26T06:49:42.118Z,25.18
2022-08-26T06:52:11.342Z,25.21
2022-08-26T06:54:43.107Z,25.25
2022-08-26T06:57:12.777Z,25.28
2022-08-26T06:59:41.252Z,25.32
2022-08-26T07:02:08.633Z,25.34
2022-08-26T07:04:41.063Z,25.36
2022-08-26T07:07:09.668Z,25.38
2022-08-26T07:09:37.471Z,25.42
2022-08-26T07:12:07.810Z,25.45
2022-08-26T07:14:36.978Z,25.48
2022-08-26T07:17:04.409Z,25.51
2022-08-26T07:19:31.933Z,25.56
2022-08-26T07:22:03.535Z,25.62
2022-08-26T07:24:37.503Z,25.67
2022-08-26T07:27:09.696Z,25.70
2022-08-26T07:29:39.435Z,25.74
2022-08-26T07:32:07.080Z,25.79
2022-08-26T07:34:34.683Z,25.82
2022-08-26T07:37:02.023Z,25.87
2022-08-26T07:39:31.595Z,25.91
2022-08-26T07:42:07.725Z,25.98
2022-08-26T07:44:37.695Z,26.02
2022-08-26T07:47:24.556Z,26.08
2022-08-26T07:49:54.507Z,26.13
2022-08-26T07:52:26.377Z,26.18
2022-08-26T07:54:58.572Z,26.23
2022-08-26T07:57:27.208Z,26.29
2022-08-26T07:59:55.506Z,26.34
2022-08-26T08:02:23.740Z,26.40
2022-08-26T08:04:51.837Z,26.45
2022-08-26T08:07:18.992Z,26.52
2022-08-26T08:09:49.433Z,26.56
2022-08-26T08:12:19.160Z,26.62
2022-08-26T08:14:46.935Z,26.63
2022-08-26T08:17:16.181Z,26.66
2022-08-26T08:19:43.435Z,26.69
2022-08-26T08:22:17.343Z,26.74
2022-08-26T08:24:50.016Z,26.79
2022-08-26T08:27:23.648Z,26.85
2022-08-26T08:29:55.029Z,26.92
2022-08-26T08:32:23.437Z,26.98
2022-08-26T08:34:50.444Z,27.03
2022-08-26T08:37:17.583Z,27.06
2022-08-26T08:39:44.593Z,27.10
2022-08-26T08:42:30.894Z,27.19
2022-08-26T08:45:04.761Z,27.26
2022-08-26T08:47:47.446Z,27.32
2022-08-26T08:50:35.842Z,27.34
2022-08-26T08:53:15.150Z,27.37
2022-08-26T08:55:50.817Z,27.43
2022-08-26T08:58:21.729Z,27.49
2022-08-26T09:01:00.890Z,27.54
2022-08-26T09:04:18.405Z,27.59
2022-08-26T09:06:47.480Z,27.67
2022-08-26T09:09:24.666Z,27.77
2022-08-26T09:11:52.574Z,27.84
2022-08-26T09:14:19.705Z,27.94
2022-08-26T09:17:09.879Z,28.02
2022-08-26T09:19:48.101Z,28.12
2022-08-26T09:22:36.545Z,28.24
2022-08-26T09:25:11.153Z,28.33
2022-08-26T09:27:41.496Z,28.38
2022-08-26T09:30:12.796Z,28.44
2022-08-26T09:32:40.461Z,28.51
2022-08-26T09:35:26.371Z,28.54
2022-08-26T09:37:53.738Z,28.61
2022-08-26T09:40:34.680Z,28.67
2022-08-26T09:43:10.212Z,28.74
2022-08-26T09:45:41.378Z,28.82
2022-08-26T09:48:37.744Z,28.91
2022-08-26T09:51:32.085Z,28.95
2022-08-26T09:54:02.799Z,29.00
2022-08-26T09:56:34.993Z,29.06
2022-08-26T09:59:04.607Z,29.15
2022-08-26T10:01:43.812Z,29.23
2022-08-26T10:04:21.041Z,29.32
2022-08-26T10:07:08.166Z,29.40
2022-08-26T10:09:45.839Z,29.45
2022-08-26T10:12:21.227Z,29.44
2022-08-26T10:14:55.653Z,29.51
2022-08-26T10:17:32.289Z,29.61
2022-08-26T10:20:24.165Z,29.68
2022-08-26T10:23:18.164Z,29.77
2022-08-26T10:25:59.753Z,29.81
2022-08-26T10:28:44.394Z,29.89
2022-08-26T10:31:41.311Z,29.97
2022-08-26T10:34:09.794Z,30.04
2022-08-26T10:37:13.604Z,30.12
2022-08-26T10:39:57.139Z,30.17
2022-08-26T10:42:37.564Z,30.22
2022-08-26T10:45:14.830Z,30.25
2022-08-26T10:47:57.539Z,30.31
2022-08-26T10:50:33.548Z,30.35
2022-08-26T10:54:01.043Z,30.36
2022-08-26T10:56:32.738Z,30.40
2022-08-26T10:59:06.015Z,30.41
2022-08-26T11:01:51.040Z,30.48
2022-08-26T11:04:35.747Z,30.56
2022-08-26T11:07:44.311Z,30.65
2022-08-26T11:10:20.779Z,30.72
2022-08-26T11:12:53.957Z,30.79
2022-08-26T11:15:24.751Z,30.87
2022-08-26T11:17:52.078Z,30.92
2022-08-26T11:20:44.894Z,31.00
2022-08-26T11:23:12.952Z,31.03
2022-08-26T11:26:05.220Z,31.08
2022-08-26T11:28:51.716Z,31.16
2022-08-26T11:31:19.129Z,31.23
2022-08-26T11:33:58.113Z,31.31
2022-08-26T11:36:49.145Z,31.36
2022-08-26T11:39:54.081Z,31.47
2022-08-26T11:42:49.228Z,31.53
2022-08-26T11:45:22.989Z,31.53
2022-08-26T11:47:50.884Z,31.57
2022-08-26T11:50:36.076Z,31.67
2022-08-26T11:53:06.382Z,31.76
2022-08-26T11:55:42.608Z,31.85
2022-08-26T11:58:12.713Z,31.94
2022-08-26T12:00:46.399Z,31.99
2022-08-26T12:03:23.027Z,32.06
2022-08-26T12:05:52.514Z,32.12
2022-08-26T12:08:27.798Z,32.17
2022-08-26T12:11:09.202Z,32.10
2022-08-26T12:13:39.044Z,32.09
2022-08-26T12:16:06.989Z,32.08
2022-08-26T12:18:39.162Z,32.09
2022-08-26T12:21:24.544Z,32.14
2022-08-26T12:23:55.853Z,32.24
2022-08-26T12:26:36.408Z,32.35
2022-08-26T12:29:26.632Z,32.39
2022-08-26T12:32:14.794Z,32.46
2022-08-26T12:34:44.613Z,32.52
2022-08-26T12:37:14.161Z,32.53
2022-08-26T12:39:44.595Z,32.55
2022-08-26T12:42:17.199Z,32.56
2022-08-26T12:45:03.753Z,32.54
2022-08-26T12:47:43.955Z,32.50
2022-08-26T12:50:28.827Z,32.44
2022-08-26T12:53:31.244Z,32.46
2022-08-26T12:56:03.722Z,32.52
2022-08-26T12:58:37.129Z,32.57
2022-08-26T13:01:04.033Z,32.52
2022-08-26T13:03:33.941Z,32.46
2022-08-26T13:06:29.748Z,32.45
2022-08-26T13:09:08.774Z,32.55
2022-08-26T13:11:59.292Z,32.64
2022-08-26T13:14:29.101Z,32.77
2022-08-26T13:16:56.045Z,32.89
2022-08-26T13:19:25.605Z,33.01
2022-08-26T13:22:00.576Z,33.09
2022-08-26T13:24:37.172Z,33.18
2022-08-26T13:27:08.196Z,33.25
2022-08-26T13:29:35.294Z,33.17
2022-08-26T13:32:05.070Z,33.11
2022-08-26T13:34:32.958Z,33.00
2022-08-26T13:37:00.077Z,32.94
2022-08-26T13:39:27.347Z,32.88
2022-08-26T13:41:54.824Z,32.83
2022-08-26T13:44:21.946Z,32.84
2022-08-26T13:46:49.315Z,32.86
2022-08-26T13:49:16.386Z,32.86
2022-08-26T13:51:43.611Z,32.85
2022-08-26T13:54:10.678Z,32.88
2022-08-26T13:56:37.705Z,32.89
2022-08-26T13:59:06.512Z,32.99
2022-08-26T14:01:35.497Z,33.18
2022-08-26T14:04:03.284Z,33.32
2022-08-26T14:06:30.841Z,33.47
2022-08-26T14:08:58.145Z,33.66
2022-08-26T14:11:25.277Z,33.82
2022-08-26T14:13:52.443Z,33.95
2022-08-26T14:16:34.438Z,34.03
2022-08-26T14:19:02.490Z,34.13
2022-08-26T14:21:32.639Z,34.22
2022-08-26T14:24:01.014Z,34.29
2022-08-26T14:26:29.794Z,34.30
2022-08-26T14:28:59.550Z,34.33
2022-08-26T14:31:29.423Z,34.18
2022-08-26T14:34:04.640Z,34.13
2022-08-26T14:36:33.113Z,34.06
2022-08-26T14:39:10.709Z,34.05
2022-08-26T14:41:57.035Z,34.05
2022-08-26T14:44:32.044Z,34.09
2022-08-26T14:47:02.630Z,34.00
2022-08-26T14:49:31.323Z,33.97
2022-08-26T14:52:00.939Z,33.95
2022-08-26T14:54:29.488Z,33.89
2022-08-26T14:57:07.619Z,33.83
2022-08-26T14:59:42.256Z,33.78
2022-08-26T15:02:27.747Z,33.74
2022-08-26T15:05:02.673Z,33.60
2022-08-26T15:07:30.032Z,33.57
2022-08-26T15:09:57.835Z,33.49
2022-08-26T15:12:24.886Z,33.46
2022-08-26T15:14:52.477Z,33.43
2022-08-26T15:17:20.135Z,33.42
2022-08-26T15:19:47.404Z,33.39
2022-08-26T15:22:14.406Z,33.43
2022-08-26T15:24:41.554Z,33.44
2022-08-26T15:27:09.076Z,33.47
2022-08-26T15:29:36.713Z,33.43
2022-08-26T15:32:04.625Z,33.37
2022-08-26T15:34:32.371Z,33.32
2022-08-26T15:36:59.709Z,33.28
2022-08-26T15:39:27.269Z,33.24
2022-08-26T15:41:56.156Z,33.21
2022-08-26T15:44:25.104Z,33.18
2022-08-26T15:46:56.562Z,33.13
2022-08-26T15:49:25.351Z,33.07
2022-08-26T15:51:52.736Z,33.06
2022-08-26T15:54:23.333Z,33.04
2022-08-26T15:56:52.174Z,33.02
2022-08-26T15:59:21.497Z,33.00
2022-08-26T16:01:48.676Z,33.01
2022-08-26T16:04:15.925Z,32.99
2022-08-26T16:06:43.636Z,32.99
2022-08-26T16:09:11.475Z,32.97
2022-08-26T16:11:39.463Z,32.94
2022-08-26T16:14:07.207Z,32.89
2022-08-26T16:16:39.311Z,32.84
2022-08-26T16:19:08.232Z,32.81
2022-08-26T16:21:35.985Z,32.77
2022-08-26T16:24:04.141Z,32.73
2022-08-26T16:26:34.418Z,32.70
2022-08-26T16:29:06.767Z,32.64
2022-08-26T16:31:35.534Z,32.61
2022-08-26T16:34:02.810Z,32.58
2022-08-26T16:36:29.989Z,32.56
2022-08-26T16:38:57.052Z,32.55
2022-08-26T16:41:29.606Z,32.53
2022-08-26T16:43:57.586Z,32.50
2022-08-26T16:46:28.700Z,32.46
2022-08-26T16:48:57.787Z,32.42
2022-08-26T16:51:27.855Z,32.40
2022-08-26T16:53:56.948Z,32.37
2022-08-26T16:56:33.401Z,32.33
2022-08-26T16:59:06.615Z,32.27
2022-08-26T17:01:34.172Z,32.24
2022-08-26T17:04:01.379Z,32.19
2022-08-26T17:06:28.729Z,32.17
2022-08-26T17:08:55.936Z,32.13
2022-08-26T17:11:23.657Z,32.11
2022-08-26T17:13:51.061Z,32.02
2022-08-26T17:16:18.421Z,31.99
2022-08-26T17:18:45.749Z,31.95
2022-08-26T17:21:13.860Z,31.95
2022-08-26T17:23:42.915Z,31.94
2022-08-26T17:26:12.370Z,31.92
2022-08-26T17:28:40.609Z,31.89
2022-08-26T17:31:11.188Z,31.87
2022-08-26T17:33:39.745Z,31.84
2022-08-26T17:36:09.372Z,31.82
2022-08-26T17:38:38.211Z,31.78
2022-08-26T17:41:11.109Z,31.74
2022-08-26T17:43:39.316Z,31.68
2022-08-26T17:46:10.813Z,31.64
2022-08-26T17:48:40.861Z,31.57
2022-08-26T17:51:12.502Z,31.55
2022-08-26T17:53:41.373Z,31.51
2022-08-26T17:56:14.947Z,31.47
2022-08-26T17:58:51.020Z,31.43
2022-08-26T18:01:20.804Z,31.37
2022-08-26T18:03:48.765Z,31.35
2022-08-26T18:06:15.837Z,31.28
2022-08-26T18:08:43.985Z,31.19
2022-08-26T18:11:14.776Z,31.17
2022-08-26T18:13:47.005Z,31.14
2022-08-26T18:16:17.511Z,31.09
2022-08-26T18:18:45.627Z,31.01
2022-08-26T18:21:16.986Z,30.98
2022-08-26T18:23:45.644Z,30.88
2022-08-26T18:26:33.635Z,30.87
2022-08-26T18:29:01.102Z,30.84
2022-08-26T18:31:29.585Z,30.79
2022-08-26T18:33:57.221Z,30.76
2022-08-26T18:36:32.850Z,30.74
2022-08-26T18:39:01.266Z,30.72
2022-08-26T18:41:31.587Z,30.67
2022-08-26T18:44:00.299Z,30.62
2022-08-26T18:46:28.342Z,30.58
2022-08-26T18:48:57.444Z,30.55
2022-08-26T18:51:29.990Z,30.51
2022-08-26T18:54:01.232Z,30.45
2022-08-26T18:56:29.884Z,30.40
2022-08-26T18:58:58.396Z,30.36
2022-08-26T19:01:27.808Z,30.31
2022-08-26T19:04:00.116Z,30.26
2022-08-26T19:06:31.597Z,30.20
2022-08-26T19:09:00.280Z,30.15
2022-08-26T19:11:32.452Z,30.10
2022-08-26T19:14:13.593Z,30.03
2022-08-26T19:16:44.625Z,29.96
2022-08-26T19:19:13.248Z,29.92
2022-08-26T19:21:55.522Z,29.86
2022-08-26T19:24:25.997Z,29.81
2022-08-26T19:27:00.091Z,29.77
2022-08-26T19:29:33.224Z,29.71
2022-08-26T19:32:02.098Z,29.69
2022-08-26T19:34:29.899Z,29.65
2022-08-26T19:36:58.804Z,29.61
2022-08-26T19:39:26.935Z,29.59
2022-08-26T19:41:54.194Z,29.56
2022-08-26T19:44:41.628Z,29.53
2022-08-26T19:47:10.531Z,29.49
2022-08-26T19:49:38.255Z,29.45
2022-08-26T19:52:06.543Z,29.41
2022-08-26T19:54:36.175Z,29.36
2022-08-26T19:57:04.068Z,29.32
2022-08-26T19:59:33.102Z,29.29
2022-08-26T20:02:01.341Z,29.25
2022-08-26T20:04:31.248Z,29.21
2022-08-26T20:07:01.951Z,29.18
2022-08-26T20:09:31.035Z,29.14
2022-08-26T20:11:58.797Z,29.11
2022-08-26T20:14:30.305Z,29.08
2022-08-26T20:16:57.857Z,29.03
2022-08-26T20:19:46.110Z,29.02
2022-08-26T20:22:18.880Z,29.00
2022-08-26T20:24:47.163Z,28.97
2022-08-26T20:27:15.579Z,28.92
2022-08-26T20:29:43.133Z,28.87
2022-08-26T20:32:11.936Z,28.83
2022-08-26T20:34:40.387Z,28.76
2022-08-26T20:37:08.529Z,28.72
2022-08-26T20:39:35.925Z,28.69
2022-08-26T20:42:04.310Z,28.66
2022-08-26T20:44:32.715Z,28.65
2022-08-26T20:47:02.485Z,28.64
2022-08-26T20:49:31.097Z,28.61
2022-08-26T20:52:00.248Z,28.60
2022-08-26T20:54:28.601Z,28.58
2022-08-26T20:56:58.211Z,28.57
2022-08-26T20:59:26.439Z,28.55
2022-08-26T21:01:53.983Z,28.56
2022-08-26T21:04:27.496Z,28.56
2022-08-26T21:06:55.706Z,28.56
2022-08-26T21:09:25.090Z,28.55
2022-08-26T21:11:53.846Z,28.52
2022-08-26T21:14:22.935Z,28.52
2022-08-26T21:16:53.625Z,28.51
2022-08-26T21:19:21.062Z,28.50
2022-08-26T21:21:50.762Z,28.49
2022-08-26T21:24:18.129Z,28.49
2022-08-26T21:26:46.104Z,28.50
2022-08-26T21:29:13.989Z,28.50
2022-08-26T21:31:46.505Z,28.50
2022-08-26T21:34:17.732Z,28.49
2022-08-26T21:36:52.520Z,28.49
2022-08-26T21:39:19.936Z,28.48
2022-08-26T21:41:47.341Z,28.47
2022-08-26T21:44:16.713Z,28.43
2022-08-26T21:46:45.669Z,28.41
2022-08-26T21:49:15.941Z,28.37
2022-08-26T21:51:47.492Z,28.34
2022-08-26T21:54:15.653Z,28.30
2022-08-26T21:56:46.816Z,28.28
2022-08-26T21:59:18.279Z,28.27
2022-08-26T22:01:48.643Z,28.27
2022-08-26T22:04:17.172Z,28.26
2022-08-26T22:06:51.862Z,28.24
2022-08-26T22:09:23.157Z,28.23
2022-08-26T22:11:51.318Z,28.23
2022-08-26T22:14:30.427Z,28.22
2022-08-26T22:16:59.567Z,28.19
2022-08-26T22:19:26.990Z,28.18
2022-08-26T22:21:55.711Z,28.19
2022-08-26T22:24:25.967Z,28.18
2022-08-26T22:26:54.680Z,28.17
2022-08-26T22:29:22.530Z,28.14
2022-08-26T22:31:49.809Z,28.11
2022-08-26T22:34:19.481Z,28.08
2022-08-26T22:36:49.108Z,28.06
2022-08-26T22:39:22.108Z,28.05
2022-08-26T22:41:49.933Z,28.04
2022-08-26T22:44:20.488Z,28.03
2022-08-26T22:46:50.310Z,28.00
2022-08-26T22:49:17.768Z,27.96
2022-08-26T22:51:46.436Z,27.91
2022-08-26T22:54:15.559Z,27.86
2022-08-26T22:56:45.060Z,27.81
2022-08-26T22:59:13.127Z,27.75
2022-08-26T23:01:43.502Z,27.69
2022-08-26T23:04:11.169Z,27.62
2022-08-26T23:06:43.250Z,27.56
2022-08-26T23:09:18.222Z,27.52
2022-08-26T23:11:47.545Z,27.50
2022-08-26T23:14:16.991Z,27.50
2022-08-26T23:16:44.393Z,27.49
2022-08-26T23:19:14.515Z,27.48
2022-08-26T23:21:42.268Z,27.46
2022-08-26T23:24:10.139Z,27.44
2022-08-26T23:26:38.812Z,27.44
2022-08-26T23:29:08.761Z,27.41
2022-08-26T23:31:38.729Z,27.39
2022-08-26T23:34:24.921Z,27.40
2022-08-26T23:36:52.825Z,27.38
2022-08-26T23:39:21.175Z,27.36
2022-08-26T23:41:48.292Z,27.33
2022-08-26T23:44:15.321Z,27.30
2022-08-26T23:46:43.085Z,27.25
2022-08-26T23:49:10.503Z,27.20
2022-08-26T23:51:56.964Z,27.18
2022-08-26T23:54:24.264Z,27.11
2022-08-26T23:56:51.327Z,27.08
2022-08-26T23:59:18.397Z,27.06
